Time;durP1;ratioP1;P1;durP2;ratioP2;P2;SDS_P1;SDS_P2;PMS_P1;PMS_P2;Temp;Humidity;BMP_temperature;BMP_pressure;BME280_temperature;BME280_humidity;BME280_pressure;Samples;Min_cycle;Max_cycle;Signal;HPM_P1;HPM_P2
2022/04/27 00:00:28;;;;;;;30.55;15.98;;;9.30;99.90;;;;;;5090905;28;20488;-60
2022/04/27 00:02:56;;;;;;;29.80;16.27;;;9.20;99.90;;;;;;5088889;28;20405;-59
2022/04/27 00:05:21;;;;;;;30.95;16.02;;;9.20;99.90;;;;;;5084717;28;20396;-59
2022/04/27 00:07:47;;;;;;;30.67;16.90;;;9.20;99.90;;;;;;5080900;28;20747;-60
2022/04/27 00:10:13;;;;;;;32.67;16.35;;;9.20;99.90;;;;;;5078530;28;20741;-58
2022/04/27 00:12:39;;;;;;;33.50;17.17;;;9.10;99.90;;;;;;5072248;28;20406;-60
2022/04/27 00:15:06;;;;;;;31.65;17.30;;;9.10;99.90;;;;;;5090816;28;20793;-60
2022/04/27 00:17:32;;;;;;;32.37;17.40;;;9.10;99.90;;;;;;5077817;28;20999;-59
2022/04/27 00:19:58;;;;;;;35.72;18.75;;;9.10;99.90;;;;;;5091399;28;20517;-60
2022/04/27 00:22:24;;;;;;;38.40;18.05;;;9.10;99.90;;;;;;5071678;28;20441;-60
2022/04/27 00:24:49;;;;;;;32.93;18.17;;;9.20;99.90;;;;;;5051568;28;20393;-59
2022/04/27 00:27:16;;;;;;;34.55;17.75;;;9.00;99.90;;;;;;5050445;28;20746;-59
2022/04/27 00:29:42;;;;;;;38.95;18.73;;;9.00;99.90;;;;;;5051270;28;20432;-59
2022/04/27 00:32:08;;;;;;;38.97;19.80;;;8.90;99.90;;;;;;5051243;28;20377;-60
2022/04/27 00:34:34;;;;;;;35.95;17.98;;;9.00;99.90;;;;;;5057854;28;20468;-60
2022/04/27 00:37:00;;;;;;;35.25;19.10;;;9.00;99.90;;;;;;5068960;28;20514;-60
2022/04/27 00:39:25;;;;;;;38.33;19.63;;;8.90;99.90;;;;;;5061191;28;20423;-59
2022/04/27 00:42:00;;;;;;;39.13;19.93;;;8.90;99.90;;;;;;5059651;28;20388;-60
2022/04/27 00:44:31;;;;;;;40.03;20.25;;;8.90;99.90;;;;;;5053535;28;20767;-60
2022/04/27 00:46:57;;;;;;;41.20;20.20;;;9.00;99.90;;;;;;5051072;28;20759;-60
2022/04/27 00:49:24;;;;;;;41.00;19.53;;;9.10;99.90;;;;;;5067236;28;20535;-59
2022/04/27 00:51:50;;;;;;;36.75;19.05;;;9.20;99.90;;;;;;5066479;28;20389;-60
2022/04/27 00:54:18;;;;;;;38.60;19.70;;;9.30;99.90;;;;;;5050831;28;20913;-59
2022/04/27 00:56:44;;;;;;;40.38;20.30;;;9.30;99.90;;;;;;5051859;28;20450;-60
2022/04/27 00:59:10;;;;;;;40.30;20.70;;;9.30;99.90;;;;;;5051549;28;20398;-59
2022/04/27 01:01:36;;;;;;;41.47;20.50;;;9.30;99.90;;;;;;5063089;28;20509;-60
2022/04/27 01:04:05;;;;;;;39.28;19.70;;;9.40;99.90;;;;;;5069115;28;20392;-60
2022/04/27 01:06:31;;;;;;;43.30;21.38;;;9.50;99.90;;;;;;5056207;28;20393;-59
2022/04/27 01:08:56;;;;;;;37.57;20.17;;;9.50;99.90;;;;;;5055014;28;20411;-60
2022/04/27 01:11:22;;;;;;;40.83;20.40;;;9.50;99.90;;;;;;5057381;28;20393;-59
2022/04/27 01:13:48;;;;;;;38.93;19.80;;;9.50;99.90;;;;;;5050378;28;20482;-60
2022/04/27 01:16:14;;;;;;;37.80;19.77;;;9.50;99.90;;;;;;5048881;28;20777;-59
2022/04/27 01:18:39;;;;;;;39.72;20.33;;;9.40;99.90;;;;;;5052835;28;20399;-59
2022/04/27 01:21:05;;;;;;;43.03;21.40;;;9.40;99.90;;;;;;5049941;28;20850;-60
2022/04/27 01:23:31;;;;;;;41.92;21.80;;;9.40;99.90;;;;;;5059454;28;20486;-60
2022/04/27 01:26:05;;;;;;;40.30;20.83;;;9.50;99.90;;;;;;5065070;28;20488;-59
2022/04/27 01:28:33;;;;;;;41.55;21.15;;;9.40;99.90;;;;;;5061720;28;20441;-59
2022/04/27 01:31:00;;;;;;;43.15;21.40;;;9.30;99.90;;;;;;5052746;28;20480;-60
2022/04/27 01:33:27;;;;;;;41.90;20.23;;;9.30;99.90;;;;;;5058952;28;20489;-60
2022/04/27 01:35:53;;;;;;;43.70;21.15;;;9.40;99.90;;;;;;5049864;28;20413;-60
2022/04/27 01:38:19;;;;;;;43.28;21.70;;;9.30;99.90;;;;;;5066668;28;20384;-60
2022/04/27 01:40:52;;;;;;;43.08;22.55;;;9.40;99.90;;;;;;5063101;28;20886;-59
2022/04/27 01:43:19;;;;;;;45.70;22.77;;;9.30;99.90;;;;;;5048906;28;20369;-59
2022/04/27 01:45:45;;;;;;;47.90;22.92;;;9.30;99.90;;;;;;5064836;28;20441;-59
2022/04/27 01:48:13;;;;;;;44.70;22.63;;;9.40;99.90;;;;;;5054936;28;21287;-59
2022/04/27 01:50:39;;;;;;;44.17;22.33;;;9.40;99.90;;;;;;5069003;28;20444;-59
2022/04/27 01:55:50;;;;;;;43.03;21.63;;;9.50;99.90;;;;;;5060995;28;20416;-59
2022/04/27 01:58:17;;;;;;;39.35;20.42;;;9.50;99.90;;;;;;5055079;28;20416;-59
2022/04/27 02:00:46;;;;;;;41.40;22.02;;;9.50;99.90;;;;;;5060438;28;20427;-59
2022/04/27 02:03:13;;;;;;;37.78;20.60;;;9.60;99.90;;;;;;5051286;28;20429;-60
2022/04/27 02:05:39;;;;;;;39.85;20.55;;;9.50;99.90;;;;;;5057907;28;20400;-60
2022/04/27 02:08:05;;;;;;;40.35;20.05;;;9.60;99.90;;;;;;5055040;28;20393;-60
2022/04/27 02:10:31;;;;;;;38.80;20.77;;;9.60;99.90;;;;;;5056381;28;20397;-60
2022/04/27 02:12:56;;;;;;;40.78;20.40;;;9.60;99.90;;;;;;5049467;28;20778;-60
2022/04/27 02:15:22;;;;;;;33.93;18.93;;;9.60;99.90;;;;;;5062310;28;20422;-59
2022/04/27 02:17:50;;;;;;;39.65;19.05;;;9.60;99.90;;;;;;5068495;28;20393;-60
2022/04/27 02:20:18;;;;;;;37.42;19.20;;;9.60;99.90;;;;;;5061920;28;20522;-58
2022/04/27 02:22:44;;;;;;;36.53;18.45;;;9.60;99.90;;;;;;5066118;28;20420;-60
2022/04/27 02:25:09;;;;;;;34.80;18.75;;;9.70;99.90;;;;;;5054669;28;20869;-60
2022/04/27 02:27:35;;;;;;;34.10;18.40;;;9.90;99.90;;;;;;5060866;28;21039;-60
2022/04/27 02:30:03;;;;;;;33.08;17.45;;;9.90;99.90;;;;;;5053610;28;20397;-60
2022/04/27 02:32:29;;;;;;;34.45;18.95;;;9.80;99.90;;;;;;5053679;28;20484;-60
2022/04/27 02:34:54;;;;;;;38.95;18.98;;;9.80;99.90;;;;;;5057537;28;20395;-60
2022/04/27 02:37:20;;;;;;;33.27;17.93;;;9.80;99.90;;;;;;5052629;28;20373;-59
2022/04/27 02:39:46;;;;;;;30.20;17.10;;;9.80;99.90;;;;;;5069676;28;20897;-60
2022/04/27 02:42:12;;;;;;;28.70;15.80;;;9.80;99.90;;;;;;5068936;28;20400;-60
2022/04/27 02:44:39;;;;;;;30.38;16.40;;;9.80;99.90;;;;;;5052443;28;20408;-60
2022/04/27 02:47:05;;;;;;;29.33;16.88;;;9.80;99.90;;;;;;5067457;28;20387;-59
2022/04/27 02:52:14;;;;;;;25.95;14.70;;;9.90;99.90;;;;;;5054032;28;20757;-59
2022/04/27 02:54:40;;;;;;;25.57;15.10;;;10.00;99.90;;;;;;5053280;28;20397;-59
2022/04/27 02:57:06;;;;;;;28.48;16.08;;;10.00;99.90;;;;;;5057300;28;20442;-59
2022/04/27 02:59:33;;;;;;;26.00;14.75;;;9.90;99.90;;;;;;5054550;28;20409;-61
2022/04/27 03:01:58;;;;;;;25.08;14.15;;;9.90;99.90;;;;;;5071207;28;20399;-60
2022/04/27 03:04:24;;;;;;;24.60;14.20;;;9.80;99.90;;;;;;5068645;28;20388;-60
2022/04/27 03:06:50;;;;;;;23.65;14.25;;;9.80;99.90;;;;;;5067114;28;20396;-60
2022/04/27 03:09:16;;;;;;;23.27;13.80;;;9.80;99.90;;;;;;5072219;28;20380;-59
2022/04/27 03:11:42;;;;;;;23.07;13.27;;;9.80;99.90;;;;;;5059322;28;20480;-60
2022/04/27 03:14:07;;;;;;;23.73;13.40;;;9.90;99.90;;;;;;5058640;28;20395;-60
2022/04/27 03:16:33;;;;;;;21.93;13.33;;;9.80;99.90;;;;;;5071428;28;20391;-60
2022/04/27 03:18:59;;;;;;;25.20;13.30;;;9.90;99.90;;;;;;5056373;28;20496;-60
2022/04/27 03:21:26;;;;;;;22.25;12.82;;;9.90;99.90;;;;;;5062937;28;20438;-59
2022/04/27 03:23:52;;;;;;;22.33;13.40;;;9.90;99.90;;;;;;5069901;28;20909;-59
2022/04/27 03:26:17;;;;;;;21.77;12.90;;;9.90;99.90;;;;;;5063710;28;20393;-59
2022/04/27 03:28:43;;;;;;;19.73;11.60;;;9.90;99.90;;;;;;5067333;28;20760;-60
2022/04/27 03:31:09;;;;;;;21.52;12.48;;;9.80;99.90;;;;;;5063347;28;20442;-59
2022/04/27 03:33:35;;;;;;;22.40;12.20;;;9.70;99.90;;;;;;5071737;28;20624;-59
2022/04/27 03:36:00;;;;;;;21.60;12.47;;;9.70;99.90;;;;;;5068708;28;20424;-59
2022/04/27 03:38:26;;;;;;;21.40;12.00;;;9.60;99.90;;;;;;5061461;28;20404;-59
2022/04/27 03:40:52;;;;;;;20.80;12.30;;;9.60;99.90;;;;;;5068319;28;20417;-60
2022/04/27 03:43:19;;;;;;;21.30;11.60;;;9.60;99.90;;;;;;5051467;28;20415;-61
2022/04/27 03:45:45;;;;;;;20.80;11.85;;;9.60;99.90;;;;;;5066927;28;20409;-60
2022/04/27 03:48:10;;;;;;;20.60;11.10;;;9.70;99.90;;;;;;5062832;28;20391;-60
2022/04/27 03:50:36;;;;;;;19.30;11.35;;;9.70;99.90;;;;;;5070063;28;20391;-60
2022/04/27 03:53:02;;;;;;;20.60;10.83;;;9.60;99.90;;;;;;5067148;28;20774;-59
2022/04/27 03:55:29;;;;;;;20.17;11.13;;;9.70;99.90;;;;;;5055089;28;20854;-59
2022/04/27 03:57:55;;;;;;;20.13;11.88;;;9.60;99.90;;;;;;5056553;28;20390;-60
2022/04/27 04:00:21;;;;;;;24.58;13.60;;;9.60;99.90;;;;;;5060055;28;20420;-59
2022/04/27 04:02:47;;;;;;;20.08;11.63;;;9.70;99.90;;;;;;5047475;28;20405;-60
2022/04/27 04:05:12;;;;;;;20.85;11.73;;;9.80;99.90;;;;;;5035157;28;20755;-60
2022/04/27 04:07:39;;;;;;;19.33;11.27;;;9.80;99.90;;;;;;5052063;28;20385;-60
2022/04/27 04:10:06;;;;;;;19.02;11.10;;;9.80;99.90;;;;;;5069145;28;20544;-60
2022/04/27 04:12:31;;;;;;;21.80;12.03;;;9.90;99.90;;;;;;5058186;28;20401;-60
2022/04/27 04:14:57;;;;;;;20.38;11.70;;;9.90;99.90;;;;;;5053214;28;20411;-60
2022/04/27 04:17:23;;;;;;;20.40;11.80;;;10.00;99.90;;;;;;5062743;28;20903;-59
2022/04/27 04:19:48;;;;;;;20.30;11.45;;;9.90;99.90;;;;;;5068740;28;20776;-60
2022/04/27 04:22:14;;;;;;;20.05;11.55;;;9.80;99.90;;;;;;5069623;28;20408;-59
2022/04/27 04:28:29;;;;;;;18.35;11.13;;;9.70;99.90;;;;;;5037131;28;20713;-59
2022/04/27 04:30:11;;;;;;;20.92;11.77;;;9.80;99.90;;;;;;5053845;28;20777;-60
2022/04/27 04:32:37;;;;;;;19.90;11.18;;;9.90;99.90;;;;;;5063848;28;20401;-59
2022/04/27 04:35:03;;;;;;;20.70;11.73;;;10.00;99.90;;;;;;5051024;28;20378;-60
2022/04/27 04:37:31;;;;;;;20.63;12.52;;;10.00;99.90;;;;;;5050684;28;20770;-59
2022/04/27 04:39:56;;;;;;;19.00;11.07;;;10.00;99.90;;;;;;5066386;28;20817;-60
2022/04/27 04:42:22;;;;;;;20.52;11.95;;;10.00;99.90;;;;;;5068226;28;20477;-59
2022/04/27 04:44:48;;;;;;;21.43;11.50;;;10.00;99.90;;;;;;5059737;28;20857;-60
2022/04/27 04:47:13;;;;;;;21.45;11.98;;;10.10;99.90;;;;;;5069395;28;20764;-60
2022/04/27 04:49:39;;;;;;;19.90;11.50;;;10.00;99.90;;;;;;5066197;28;20832;-60
2022/04/27 04:52:07;;;;;;;22.52;11.85;;;10.10;99.90;;;;;;5051424;28;20819;-59
2022/04/27 04:54:34;;;;;;;21.60;12.05;;;10.10;99.90;;;;;;5050959;28;20398;-60
2022/04/27 04:56:59;;;;;;;20.63;11.45;;;10.20;99.90;;;;;;5066668;28;20396;-60
2022/04/27 04:59:25;;;;;;;19.60;11.60;;;10.20;99.90;;;;;;5061036;28;20395;-59
2022/04/27 05:01:51;;;;;;;20.95;12.15;;;10.20;99.90;;;;;;5064332;28;20419;-60
2022/04/27 05:04:17;;;;;;;17.97;11.00;;;10.30;99.90;;;;;;5051484;28;20879;-59
2022/04/27 05:06:44;;;;;;;18.38;11.13;;;10.30;99.90;;;;;;5033727;28;20477;-60
2022/04/27 05:09:10;;;;;;;20.75;11.30;;;10.30;99.90;;;;;;5039475;28;20489;-60
2022/04/27 05:11:36;;;;;;;20.48;11.60;;;10.30;99.90;;;;;;5061623;28;20478;-59
2022/04/27 05:14:01;;;;;;;19.73;11.50;;;10.30;99.90;;;;;;5050295;28;20381;-60
2022/04/27 05:16:27;;;;;;;19.15;11.45;;;10.20;99.90;;;;;;5049478;28;20377;-60
2022/04/27 05:18:53;;;;;;;18.50;11.40;;;10.20;99.90;;;;;;5050525;28;20897;-60
2022/04/27 05:21:19;;;;;;;19.10;11.10;;;10.20;99.90;;;;;;5058355;28;20413;-59
2022/04/27 05:23:44;;;;;;;19.00;11.43;;;10.10;99.90;;;;;;5070868;28;20406;-60
2022/04/27 05:26:11;;;;;;;18.43;11.50;;;10.10;99.90;;;;;;5077505;28;20388;-60
2022/04/27 05:34:06;;;;;;;18.98;11.57;;;10.10;99.90;;;;;;5075566;28;20529;-60
2022/04/27 05:36:32;;;;;;;18.87;12.00;;;10.30;99.90;;;;;;5078002;28;20898;-60
2022/04/27 05:38:57;;;;;;;19.40;11.82;;;10.30;99.90;;;;;;5070220;28;20379;-60
2022/04/27 05:41:23;;;;;;;20.20;11.60;;;10.30;99.90;;;;;;5076591;28;20810;-60
2022/04/27 05:43:49;;;;;;;20.05;12.02;;;10.30;99.90;;;;;;5081064;28;20409;-60
2022/04/27 05:46:15;;;;;;;19.70;11.80;;;10.30;99.90;;;;;;5070929;28;20474;-60
2022/04/27 05:48:40;;;;;;;19.92;12.52;;;10.40;99.90;;;;;;5069200;28;20375;-60
2022/04/27 05:51:06;;;;;;;19.13;11.83;;;10.40;99.90;;;;;;5069193;28;20412;-60
2022/04/27 05:53:32;;;;;;;22.20;11.25;;;10.60;99.90;;;;;;5076101;28;20479;-60
2022/04/27 05:55:58;;;;;;;19.73;12.20;;;10.70;99.90;;;;;;5069660;28;20372;-60
2022/04/27 05:58:24;;;;;;;18.23;11.83;;;10.60;99.90;;;;;;5085499;28;20426;-60
2022/04/27 06:00:51;;;;;;;17.97;10.77;;;10.50;99.90;;;;;;5076592;28;20409;-64
2022/04/27 06:03:16;;;;;;;19.27;12.32;;;10.30;99.90;;;;;;5043242;28;20761;-64
2022/04/27 06:05:42;;;;;;;19.20;11.63;;;10.30;99.90;;;;;;5076950;28;20398;-65
2022/04/27 06:08:09;;;;;;;22.15;12.27;;;10.20;99.90;;;;;;5081189;28;20424;-63
2022/04/27 06:10:35;;;;;;;18.63;11.77;;;10.40;99.90;;;;;;5076011;28;20404;-63
2022/04/27 06:13:01;;;;;;;20.75;12.32;;;10.50;99.90;;;;;;5070758;28;20390;-64
2022/04/27 06:15:29;;;;;;;20.23;11.90;;;10.70;99.90;;;;;;5087716;28;20779;-63
2022/04/27 06:17:54;;;;;;;20.35;11.40;;;10.80;99.90;;;;;;5086716;28;20490;-64
2022/04/27 06:20:20;;;;;;;19.80;12.07;;;10.70;99.90;;;;;;5074946;28;20545;-58
2022/04/27 06:22:46;;;;;;;17.88;11.30;;;10.80;99.90;;;;;;5074816;28;20419;-63
2022/04/27 06:25:12;;;;;;;17.23;10.80;;;10.80;99.90;;;;;;5060709;28;20814;-63
2022/04/27 06:27:38;;;;;;;18.83;10.82;;;10.60;99.90;;;;;;5087498;28;20389;-64
2022/04/27 06:30:05;;;;;;;18.45;10.88;;;10.60;99.90;;;;;;5085310;28;20396;-61
2022/04/27 06:32:31;;;;;;;18.73;10.68;;;10.50;99.90;;;;;;5084236;28;20382;-64
2022/04/27 06:34:59;;;;;;;18.08;11.00;;;10.40;99.90;;;;;;5067098;28;21111;-64
2022/04/27 06:37:25;;;;;;;16.45;10.50;;;10.50;99.90;;;;;;5084808;28;20472;-63
2022/04/27 06:39:51;;;;;;;19.67;11.32;;;10.50;99.90;;;;;;5080959;28;20411;-64
2022/04/27 06:42:20;;;;;;;18.17;10.80;;;10.40;99.90;;;;;;5082809;28;20415;-64
2022/04/27 06:44:46;;;;;;;17.52;10.50;;;10.50;99.90;;;;;;5081168;28;20400;-64
2022/04/27 06:47:12;;;;;;;17.23;11.05;;;10.50;99.90;;;;;;5083044;28;20381;-64
2022/04/27 06:49:38;;;;;;;17.63;10.80;;;10.60;99.90;;;;;;5068106;28;20423;-62
2022/04/27 06:52:04;;;;;;;22.40;10.60;;;10.70;99.90;;;;;;5081954;28;20401;-63
2022/04/27 06:54:30;;;;;;;18.50;11.40;;;11.00;99.90;;;;;;5085456;28;20451;-64
2022/04/27 06:56:55;;;;;;;17.13;10.20;;;11.10;99.90;;;;;;5089333;28;20385;-62
2022/04/27 06:59:21;;;;;;;16.38;9.60;;;11.10;99.90;;;;;;5082142;28;20398;-58
2022/04/27 07:01:47;;;;;;;15.50;9.73;;;11.20;99.90;;;;;;5092252;28;20374;-63
2022/04/27 07:04:13;;;;;;;14.23;8.60;;;11.40;99.90;;;;;;5092953;28;20382;-64
2022/04/27 07:06:39;;;;;;;14.07;8.57;;;11.50;99.90;;;;;;5073767;28;20753;-61
2022/04/27 07:09:11;;;;;;;14.45;8.80;;;11.60;99.90;;;;;;5072428;28;20471;-63
2022/04/27 07:11:37;;;;;;;16.50;9.50;;;11.60;99.90;;;;;;5071455;28;20928;-61
2022/04/27 07:14:05;;;;;;;13.25;8.45;;;12.00;99.90;;;;;;5077858;28;20403;-61
2022/04/27 07:16:31;;;;;;;16.10;9.05;;;12.40;99.90;;;;;;5071937;28;20432;-61
2022/04/27 07:18:56;;;;;;;15.57;9.13;;;12.60;99.90;;;;;;5092577;28;20374;-61
2022/04/27 07:21:24;;;;;;;15.15;9.20;;;12.80;99.90;;;;;;5091168;28;20945;-56
2022/04/27 07:23:49;;;;;;;13.55;8.38;;;12.80;99.90;;;;;;5074264;28;20800;-61
2022/04/27 07:26:15;;;;;;;15.30;8.87;;;12.70;99.90;;;;;;5089072;28;20455;-61
2022/04/27 07:28:41;;;;;;;14.48;8.90;;;12.40;99.90;;;;;;5085925;28;21146;-61
2022/04/27 07:31:08;;;;;;;14.15;8.70;;;12.40;99.90;;;;;;5072543;28;20514;-61
2022/04/27 07:33:34;;;;;;;13.88;8.70;;;12.40;99.90;;;;;;5090379;28;20398;-61
2022/04/27 07:36:00;;;;;;;16.63;9.20;;;12.60;99.90;;;;;;5084223;28;20493;-61
2022/04/27 07:38:27;;;;;;;14.45;8.77;;;12.70;99.90;;;;;;5091535;28;20434;-61
2022/04/27 07:40:53;;;;;;;13.52;8.10;;;12.70;99.90;;;;;;5091966;28;20434;-61
2022/04/27 07:43:19;;;;;;;13.45;8.25;;;12.90;99.90;;;;;;5091884;28;20384;-61
2022/04/27 07:45:45;;;;;;;13.43;7.68;;;13.30;99.90;;;;;;5091319;28;20374;-61
2022/04/27 07:48:11;;;;;;;12.30;7.47;;;13.40;99.90;;;;;;5092112;28;20398;-61
2022/04/27 07:50:37;;;;;;;11.75;7.90;;;13.50;99.90;;;;;;5073128;28;21019;-63
2022/04/27 07:53:03;;;;;;;12.40;7.60;;;;;;;;;;5091928;28;20408;-65
2022/04/27 07:55:29;;;;;;;10.93;6.90;;;;;;;;;;5090961;28;20370;-64
2022/04/27 07:57:55;;;;;;;10.52;6.15;;;;;;;;;;5092067;28;20420;-65
2022/04/27 08:00:22;;;;;;;9.48;7.65;;;;;;;;;;5091505;28;20405;-59
2022/04/27 08:02:48;;;;;;;10.13;8.50;;;21.50;99.90;;;;;;5090838;28;20369;-64
2022/04/27 08:05:17;;;;;;;9.20;6.00;;;22.00;93.50;;;;;;5091296;28;20778;-64
2022/04/27 08:07:44;;;;;;;11.10;6.70;;;22.20;91.20;;;;;;5090646;28;20966;-64
2022/04/27 08:10:12;;;;;;;11.00;8.90;;;21.20;91.20;;;;;;5091671;28;20465;-64
2022/04/27 08:12:39;;;;;;;10.82;8.50;;;20.10;92.30;;;;;;5089603;28;20426;-62
2022/04/27 08:15:06;;;;;;;10.88;9.27;;;19.40;94.00;;;;;;5072715;28;20738;-63
2022/04/27 08:17:33;;;;;;;11.60;8.02;;;18.30;96.20;;;;;;5070588;28;20380;-62
2022/04/27 08:22:43;;;;;;;11.07;6.80;;;17.20;99.00;;;;;;5057069;28;20409;-63
2022/04/27 08:25:09;;;;;;;8.93;6.10;;;17.10;99.20;;;;;;5051492;28;20377;-64
2022/04/27 08:27:35;;;;;;;11.10;6.40;;;16.70;99.90;;;;;;5033144;28;20751;-64
2022/04/27 08:30:01;;;;;;;11.43;6.50;;;16.50;99.90;;;;;;5052179;28;20390;-64
2022/04/27 08:32:27;;;;;;;11.30;6.10;;;16.20;99.90;;;;;;5050927;28;20859;-63
2022/04/27 08:34:53;;;;;;;10.70;6.50;;;16.10;99.90;;;;;;5052763;28;20419;-64
2022/04/27 08:37:18;;;;;;;10.90;6.40;;;16.50;99.90;;;;;;5051397;28;20389;-64
2022/04/27 08:39:44;;;;;;;10.32;6.32;;;16.40;99.90;;;;;;5049810;28;20999;-64
2022/04/27 08:42:11;;;;;;;9.50;5.77;;;16.20;99.90;;;;;;5051221;28;20750;-64
2022/04/27 08:44:38;;;;;;;9.40;5.60;;;16.80;99.90;;;;;;5032469;28;20797;-62
2022/04/27 08:47:07;;;;;;;9.98;6.43;;;17.60;99.90;;;;;;5050954;28;20388;-62
2022/04/27 08:49:34;;;;;;;10.55;6.45;;;18.00;99.90;;;;;;5050533;28;21690;-62
2022/04/27 08:52:01;;;;;;;9.55;6.25;;;18.40;99.90;;;;;;5050840;28;20535;-62
2022/04/27 08:54:28;;;;;;;10.00;6.50;;;18.50;99.00;;;;;;5031763;28;20378;-57
2022/04/27 08:56:54;;;;;;;11.00;6.80;;;18.30;99.10;;;;;;5050449;28;20469;-63
2022/04/27 08:59:20;;;;;;;10.30;6.60;;;18.00;99.80;;;;;;5050678;28;20910;-61
2022/04/27 09:01:46;;;;;;;11.50;6.87;;;18.40;98.10;;;;;;5049616;28;21105;-60
2022/04/27 09:04:18;;;;;;;11.07;6.55;;;18.90;98.90;;;;;;5050524;28;20382;-62
2022/04/27 09:06:44;;;;;;;10.68;6.30;;;19.10;96.80;;;;;;5032145;28;20882;-62
2022/04/27 09:09:32;;;;;;;10.55;6.80;;;18.90;97.30;;;;;;5050175;28;20408;-62
2022/04/27 09:11:58;;;;;;;9.52;6.53;;;18.60;96.80;;;;;;5032329;28;20411;-62
2022/04/27 09:14:36;;;;;;;9.50;6.40;;;17.90;97.40;;;;;;5062287;28;20909;-57
2022/04/27 09:22:45;;;;;;;9.27;5.95;;;16.90;99.90;;;;;;5080319;28;20914;-62
2022/04/27 09:25:11;;;;;;;10.88;6.10;;;16.80;99.70;;;;;;5089763;28;20380;-62
2022/04/27 09:27:37;;;;;;;10.65;6.00;;;17.20;99.50;;;;;;5089223;28;20407;-62
2022/04/27 09:30:12;;;;;;;14.10;7.60;;;17.40;99.30;;;;;;5090426;28;20456;-62
2022/04/27 09:32:50;;;;;;;9.73;5.63;;;17.20;99.90;;;;;;5089347;28;20378;-62
2022/04/27 09:35:32;;;;;;;8.98;5.60;;;17.00;99.90;;;;;;5089785;28;20374;-61
2022/04/27 09:38:14;;;;;;;8.50;4.97;;;17.30;99.90;;;;;;5090057;28;20375;-62
2022/04/27 09:40:49;;;;;;;8.98;5.32;;;18.00;99.90;;;;;;5089130;28;21000;-62
2022/04/27 09:43:15;;;;;;;8.70;5.20;;;18.30;98.80;;;;;;5090120;28;20397;-62
2022/04/27 09:45:45;;;;;;;9.63;6.07;;;18.60;98.60;;;;;;5089146;28;20459;-63
2022/04/27 09:48:18;;;;;;;8.80;6.07;;;19.00;97.30;;;;;;5089707;28;20741;-63
2022/04/27 09:50:55;;;;;;;9.20;6.10;;;19.00;96.50;;;;;;5070584;28;20508;-62
2022/04/27 09:53:21;;;;;;;9.20;5.73;;;18.80;97.00;;;;;;5089820;28;20389;-63
2022/04/27 09:55:53;;;;;;;9.20;5.80;;;18.60;97.80;;;;;;5088455;28;20374;-63
2022/04/27 09:58:19;;;;;;;9.60;5.90;;;18.40;97.50;;;;;;5089564;28;20381;-63
2022/04/27 10:00:47;;;;;;;10.27;5.80;;;18.00;97.40;;;;;;5088644;28;21029;-61
2022/04/27 10:03:20;;;;;;;8.88;5.90;;;17.80;97.70;;;;;;5089850;28;20377;-63
2022/04/27 10:05:46;;;;;;;9.70;6.60;;;17.90;99.00;;;;;;5088791;28;20400;-62
2022/04/27 10:08:13;;;;;;;9.70;6.43;;;17.90;97.50;;;;;;5089677;28;20378;-62
2022/04/27 10:10:41;;;;;;;12.98;6.20;;;18.20;97.60;;;;;;5089008;28;20735;-62
2022/04/27 10:13:11;;;;;;;9.15;5.90;;;18.10;97.00;;;;;;5087634;28;20389;-62
2022/04/27 10:15:42;;;;;;;9.98;5.85;;;18.30;97.30;;;;;;5068845;28;20383;-62
2022/04/27 10:18:16;;;;;;;9.80;6.60;;;18.40;97.40;;;;;;5069578;28;20916;-61
2022/04/27 10:20:43;;;;;;;12.50;6.40;;;18.00;96.80;;;;;;5050540;28;20420;-62
2022/04/27 10:23:15;;;;;;;12.43;6.93;;;18.50;97.50;;;;;;5069133;28;20470;-61
2022/04/27 10:25:41;;;;;;;9.60;5.90;;;18.20;97.40;;;;;;5068660;28;20475;-63
2022/04/27 10:28:24;;;;;;;9.53;6.30;;;17.90;97.20;;;;;;5069130;28;20391;-62
2022/04/27 10:30:50;;;;;;;10.07;6.35;;;17.70;97.20;;;;;;5068456;28;20383;-62
2022/04/27 10:33:51;;;;;;;10.60;6.60;;;17.40;97.20;;;;;;5069091;28;20380;-62
2022/04/27 10:36:37;;;;;;;10.52;6.93;;;16.90;99.10;;;;;;4971566;28;20411;-62
2022/04/27 10:39:12;;;;;;;10.63;6.50;;;16.40;99.40;;;;;;5068157;28;20407;-65
2022/04/27 10:42:04;;;;;;;13.20;6.43;;;15.90;99.90;;;;;;5072307;28;20411;-65
2022/04/27 10:44:50;;;;;;;10.48;6.03;;;15.70;99.90;;;;;;5025471;28;20398;-64
2022/04/27 10:47:21;;;;;;;10.63;6.65;;;15.70;99.90;;;;;;5073373;28;20506;-64
2022/04/27 10:49:50;;;;;;;10.45;6.47;;;15.60;99.90;;;;;;5072254;28;20387;-65
2022/04/27 10:52:22;;;;;;;9.77;5.93;;;15.80;99.90;;;;;;5073033;28;20394;-64
2022/04/27 10:54:48;;;;;;;10.60;6.20;;;15.80;99.90;;;;;;5072042;28;20372;-65
2022/04/27 10:57:17;;;;;;;10.40;6.40;;;16.00;99.90;;;;;;5072966;28;20380;-63
2022/04/27 10:59:44;;;;;;;10.50;6.40;;;16.20;99.90;;;;;;5072375;28;20453;-65
2022/04/27 11:02:39;;;;;;;10.50;6.60;;;16.00;99.90;;;;;;5072599;28;20395;-65
2022/04/27 11:05:11;;;;;;;10.50;6.22;;;16.20;99.90;;;;;;5073312;28;20391;-64
2022/04/27 11:07:53;;;;;;;10.00;6.28;;;16.60;99.90;;;;;;5053920;28;20395;-61
2022/04/27 11:10:21;;;;;;;10.30;6.30;;;16.60;99.90;;;;;;5072710;28;20441;-61
2022/04/27 11:12:50;;;;;;;13.35;7.28;;;16.40;99.90;;;;;;5071899;28;20383;-65
2022/04/27 11:15:24;;;;;;;10.98;6.60;;;16.10;99.90;;;;;;5093173;28;20389;-64
2022/04/27 11:18:01;;;;;;;12.77;6.90;;;16.20;99.90;;;;;;5092124;28;20374;-63
2022/04/27 11:20:29;;;;;;;10.15;6.88;;;16.60;99.90;;;;;;5092463;28;20414;-58
2022/04/27 11:22:56;;;;;;;10.98;6.68;;;15.80;99.90;;;;;;5092794;28;20406;-62
2022/04/27 11:25:29;;;;;;;10.43;6.10;;;17.20;99.70;;;;;;5092514;28;20423;-62
2022/04/27 11:27:55;;;;;;;11.30;6.65;;;17.10;99.10;;;;;;5092383;28;20375;-64
2022/04/27 11:30:22;;;;;;;10.50;6.15;;;16.80;99.90;;;;;;5092497;28;20516;-61
2022/04/27 11:32:49;;;;;;;10.20;6.30;;;17.10;99.30;;;;;;5073341;28;21043;-63
2022/04/27 11:35:15;;;;;;;12.30;6.73;;;17.30;99.90;;;;;;5091919;28;20390;-63
2022/04/27 11:37:41;;;;;;;12.10;7.07;;;18.10;99.30;;;;;;5091509;28;20385;-62
2022/04/27 11:40:15;;;;;;;10.30;6.40;;;17.60;96.80;;;;;;5073934;28;20418;-62
2022/04/27 11:42:46;;;;;;;10.57;6.18;;;17.40;98.30;;;;;;5091262;28;20378;-63
2022/04/27 11:45:17;;;;;;;12.27;6.50;;;17.30;98.70;;;;;;5091973;28;20389;-63
2022/04/27 11:47:42;;;;;;;11.65;6.40;;;17.00;99.50;;;;;;5092731;28;20393;-62
2022/04/27 11:50:08;;;;;;;10.30;6.40;;;16.80;98.10;;;;;;5092709;28;20479;-63
2022/04/27 11:52:37;;;;;;;10.77;6.60;;;16.80;98.00;;;;;;5072616;28;20763;-63
2022/04/27 11:55:15;;;;;;;11.90;7.47;;;16.80;99.30;;;;;;5091874;28;20457;-62
2022/04/27 11:57:41;;;;;;;10.85;6.80;;;17.00;99.40;;;;;;5091231;28;20389;-62
2022/04/27 12:00:08;;;;;;;9.60;6.07;;;17.40;99.60;;;;;;5091368;28;20410;-63
2022/04/27 12:02:34;;;;;;;9.70;6.00;;;17.70;99.80;;;;;;5090788;28;20429;-62
2022/04/27 12:05:00;;;;;;;11.27;6.68;;;17.60;98.00;;;;;;5091750;28;20463;-63
2022/04/27 12:07:34;;;;;;;9.00;6.00;;;17.30;97.20;;;;;;5091771;28;20425;-63
2022/04/27 12:10:01;;;;;;;10.77;6.63;;;17.20;98.00;;;;;;5091630;28;20397;-63
2022/04/27 12:12:28;;;;;;;11.75;7.20;;;17.10;98.20;;;;;;5091300;28;21178;-59
2022/04/27 12:14:56;;;;;;;10.32;7.00;;;17.00;97.90;;;;;;5074024;28;20384;-63
2022/04/27 12:17:51;;;;;;;10.63;6.97;;;17.20;98.20;;;;;;5071245;28;20380;-60
2022/04/27 12:20:27;;;;;;;9.60;6.20;;;17.30;98.40;;;;;;5070810;28;20420;-62
2022/04/27 12:22:55;;;;;;;11.00;6.90;;;17.30;99.00;;;;;;5070655;28;20416;-62
2022/04/27 12:25:22;;;;;;;12.10;6.75;;;17.00;98.20;;;;;;5070973;28;20513;-63
2022/04/27 12:27:49;;;;;;;11.10;6.40;;;16.30;98.30;;;;;;5070361;28;20387;-63
2022/04/27 12:30:20;;;;;;;10.90;6.70;;;16.20;99.50;;;;;;5070898;28;20388;-64
2022/04/27 12:32:46;;;;;;;10.00;6.63;;;16.40;99.90;;;;;;5070393;28;20437;-63
2022/04/27 12:37:56;;;;;;;11.80;7.30;;;16.90;98.50;;;;;;5070763;28;20425;-63
2022/04/27 12:40:22;;;;;;;12.13;7.10;;;16.90;99.40;;;;;;5052618;28;20412;-63
2022/04/27 12:43:07;;;;;;;11.57;7.30;;;16.90;99.10;;;;;;5070253;28;20739;-58
2022/04/27 12:45:37;;;;;;;10.77;6.68;;;16.90;99.90;;;;;;5052197;28;20391;-63
2022/04/27 12:48:04;;;;;;;11.38;6.25;;;17.40;99.90;;;;;;5071047;28;20481;-61
2022/04/27 12:50:32;;;;;;;12.73;6.32;;;17.80;98.40;;;;;;5070169;28;20406;-58
2022/04/27 12:53:10;;;;;;;11.60;6.30;;;17.80;99.30;;;;;;5070382;28;21029;-63
2022/04/27 12:55:37;;;;;;;10.55;6.55;;;18.10;97.90;;;;;;5069646;28;20852;-63
2022/04/27 12:58:04;;;;;;;10.40;6.45;;;18.20;97.70;;;;;;5070295;28;20379;-63
2022/04/27 13:00:46;;;;;;;10.60;7.07;;;18.60;96.80;;;;;;5070046;28;20515;-57
2022/04/27 13:03:14;;;;;;;10.23;6.20;;;18.90;97.30;;;;;;5070615;28;20391;-63
2022/04/27 13:05:41;;;;;;;9.27;6.10;;;18.90;96.10;;;;;;5069726;28;20402;-63